createdAt,value
2018-11-02T00:01:54.579Z,98804.34
2018-11-02T00:04:22.707Z,98799.22
2018-11-02T00:06:50.955Z,98801.67
2018-11-02T00:09:19.143Z,98804.21
2018-11-02T00:11:47.422Z,98807.12
2018-11-02T00:14:15.567Z,98802.41
2018-11-02T00:16:43.769Z,98808.11
2018-11-02T00:19:12.051Z,98822.26
2018-11-02T00:21:40.264Z,98817.08
2018-11-02T00:24:08.792Z,98814.57
2018-11-02T00:26:37.147Z,98822.31
2018-11-02T00:29:05.632Z,98833.92
2018-11-02T00:31:34.134Z,98838.53
2018-11-02T00:34:02.430Z,98848.03
2018-11-02T00:36:30.664Z,98842.10
2018-11-02T00:38:58.998Z,98840.41
2018-11-02T00:41:27.133Z,98846.38
2018-11-02T00:43:55.451Z,98842.40
2018-11-02T00:46:23.567Z,98836.32
2018-11-02T00:48:51.891Z,98840.52
2018-11-02T00:51:21.143Z,98844.63
2018-11-02T00:53:49.292Z,98850.53
2018-11-02T00:56:17.533Z,98848.92
2018-11-02T00:58:45.808Z,98850.56
2018-11-02T01:01:13.948Z,98857.67
2018-11-02T01:03:42.495Z,98867.23
2018-11-02T01:06:17.467Z,98866.50
2018-11-02T01:08:45.700Z,98862.69
2018-11-02T01:11:13.959Z,98855.80
2018-11-02T01:13:42.242Z,98855.69
2018-11-02T01:16:10.614Z,98857.49
2018-11-02T01:18:38.849Z,98852.83
2018-11-02T01:21:07.171Z,98852.83
2018-11-02T01:23:35.418Z,98845.73
2018-11-02T01:26:03.703Z,98851.28
2018-11-02T01:28:31.887Z,98851.34
2018-11-02T01:31:00.319Z,98842.83
2018-11-02T01:33:33.719Z,98846.42
2018-11-02T01:36:01.863Z,98853.83
2018-11-02T01:38:30.441Z,98846.89
2018-11-02T01:40:58.854Z,98845.80
2018-11-02T01:43:27.096Z,98847.67
2018-11-02T01:45:55.307Z,98853.77
2018-11-02T01:48:24.139Z,98848.98
2018-11-02T01:50:52.387Z,98859.94
2018-11-02T01:53:20.583Z,98854.45
2018-11-02T01:55:48.799Z,98863.47
2018-11-02T01:58:17.180Z,98864.70
2018-11-02T02:00:45.320Z,98874.59
2018-11-02T02:03:13.615Z,98870.42
2018-11-02T02:05:42.000Z,98876.36
2018-11-02T02:08:10.180Z,98879.57
2018-11-02T02:10:38.383Z,98881.72
2018-11-02T02:13:06.766Z,98881.52
2018-11-02T02:15:34.854Z,98880.98
2018-11-02T02:18:03.192Z,98881.95
2018-11-02T02:20:31.464Z,98882.70
2018-11-02T02:23:00.317Z,98881.13
2018-11-02T02:25:28.588Z,98878.52
2018-11-02T02:27:56.764Z,98880.05
2018-11-02T02:30:24.985Z,98889.37
2018-11-02T02:32:53.103Z,98895.23
2018-11-02T02:35:21.344Z,98901.31
2018-11-02T02:37:49.668Z,98904.85
2018-11-02T02:40:17.879Z,98911.45
2018-11-02T02:42:46.092Z,98906.75
2018-11-02T02:45:14.289Z,98903.78
2018-11-02T02:47:42.410Z,98902.94
2018-11-02T02:50:12.575Z,98902.72
2018-11-02T02:52:40.970Z,98911.22
2018-11-02T02:55:09.348Z,98918.59
2018-11-02T02:57:38.061Z,98909.45
2018-11-02T03:00:07.848Z,98920.29
2018-11-02T03:02:35.960Z,98919.34
2018-11-02T03:05:04.163Z,98924.01
2018-11-02T03:07:32.850Z,98930.73
2018-11-02T03:10:01.171Z,98933.05
2018-11-02T03:12:29.373Z,98948.98
2018-11-02T03:14:57.876Z,98955.02
2018-11-02T03:17:26.031Z,98968.06
2018-11-02T03:19:54.231Z,98964.25
2018-11-02T03:22:22.625Z,98958.38
2018-11-02T03:24:50.811Z,98966.12
2018-11-02T03:27:19.090Z,98966.61
2018-11-02T03:29:47.522Z,98963.80
2018-11-02T03:32:15.875Z,98963.39
2018-11-02T03:34:44.080Z,98958.79
2018-11-02T03:37:12.233Z,98955.02
2018-11-02T03:39:40.526Z,98945.80
2018-11-02T03:42:08.740Z,98950.00
2018-11-02T03:44:36.950Z,98953.08
2018-11-02T03:47:05.399Z,98959.64
2018-11-02T03:49:33.841Z,98963.72
2018-11-02T03:52:02.187Z,98961.44
2018-11-02T03:54:30.505Z,98961.73
2018-11-02T03:56:58.991Z,98967.73
2018-11-02T03:59:27.056Z,98963.01
2018-11-02T04:01:55.251Z,98968.93
2018-11-02T04:04:23.597Z,98980.77
2018-11-02T04:06:52.051Z,98988.50
2018-11-02T04:09:20.324Z,99004.18
2018-11-02T04:11:48.512Z,99006.56
2018-11-02T04:14:16.667Z,99021.85
2018-11-02T04:16:45.020Z,99023.61
2018-11-02T04:19:13.688Z,99029.80
2018-11-02T04:21:44.249Z,99022.38
2018-11-02T04:24:12.507Z,99023.80
2018-11-02T04:26:41.030Z,99026.53
2018-11-02T04:29:09.841Z,99031.47
2018-11-02T04:31:38.288Z,99026.20
2018-11-02T04:34:06.410Z,99019.23
2018-11-02T04:36:34.857Z,99020.23
2018-11-02T04:39:03.087Z,99023.59
2018-11-02T04:41:31.317Z,99020.13
2018-11-02T04:43:59.594Z,99018.20
2018-11-02T04:46:27.795Z,99019.22
2018-11-02T04:48:56.041Z,99016.41
2018-11-02T04:51:24.364Z,99017.11
2018-11-02T04:53:54.776Z,99017.45
2018-11-02T04:56:23.763Z,99020.98
2018-11-02T04:58:51.907Z,99030.08
2018-11-02T05:01:20.052Z,99037.17
2018-11-02T05:03:48.284Z,99036.65
2018-11-02T05:06:16.664Z,99037.71
2018-11-02T05:08:45.423Z,99039.47
2018-11-02T05:11:14.165Z,99041.48
2018-11-02T05:13:49.247Z,99039.81
2018-11-02T05:16:17.452Z,99052.45
2018-11-02T05:18:45.558Z,99056.83
2018-11-02T05:21:13.785Z,99063.49
2018-11-02T05:23:41.882Z,99064.53
2018-11-02T05:26:10.010Z,99074.41
2018-11-02T05:28:38.131Z,99068.78
2018-11-02T05:31:06.656Z,99072.04
2018-11-02T05:33:34.896Z,99059.98
2018-11-02T05:36:03.133Z,99061.31
2018-11-02T05:38:31.303Z,99064.46
2018-11-02T05:40:59.464Z,99069.56
2018-11-02T05:43:27.752Z,99074.98
2018-11-02T05:45:55.882Z,99075.56
2018-11-02T05:48:24.202Z,99065.77
2018-11-02T05:50:52.436Z,99067.52
2018-11-02T05:53:20.584Z,99070.31
2018-11-02T05:55:48.727Z,99072.17
2018-11-02T05:58:16.914Z,99080.88
2018-11-02T06:00:45.154Z,99081.11
2018-11-02T06:03:13.448Z,99082.75
2018-11-02T06:05:41.716Z,99085.51
2018-11-02T06:08:09.847Z,99090.42
2018-11-02T06:10:38.132Z,99095.56
2018-11-02T06:13:06.276Z,99094.62
2018-11-02T06:15:34.580Z,99103.88
2018-11-02T06:18:02.972Z,99109.34
2018-11-02T06:20:31.115Z,99107.38
2018-11-02T06:22:59.325Z,99111.91
2018-11-02T06:25:27.469Z,99107.20
2018-11-02T06:27:55.715Z,99121.91
2018-11-02T06:30:24.004Z,99132.55
2018-11-02T06:32:52.313Z,99134.34
2018-11-02T06:35:20.649Z,99143.61
2018-11-02T06:37:49.095Z,99149.75
2018-11-02T06:40:17.247Z,99151.67
2018-11-02T06:42:45.528Z,99152.14
2018-11-02T06:45:13.779Z,99151.41
2018-11-02T06:47:41.900Z,99162.34
2018-11-02T06:50:10.175Z,99157.30
2018-11-02T06:52:39.036Z,99172.74
2018-11-02T06:55:08.079Z,99181.39
2018-11-02T06:57:38.359Z,99193.44
2018-11-02T07:00:10.394Z,99200.02
2018-11-02T07:02:39.377Z,99196.81
2018-11-02T07:05:07.653Z,99194.14
2018-11-02T07:07:36.001Z,99200.97
2018-11-02T07:10:04.149Z,99202.06
2018-11-02T07:12:32.448Z,99206.44
2018-11-02T07:15:00.675Z,99210.17
2018-11-02T07:17:28.962Z,99210.47
2018-11-02T07:19:57.254Z,99201.63
2018-11-02T07:22:25.431Z,99197.85
2018-11-02T07:24:53.943Z,99198.83
2018-11-02T07:27:22.039Z,99206.03
2018-11-02T07:29:50.167Z,99213.70
2018-11-02T07:32:18.425Z,99216.45
2018-11-02T07:34:46.572Z,99214.26
2018-11-02T07:37:14.770Z,99212.38
2018-11-02T07:39:42.988Z,99223.50
2018-11-02T07:42:11.133Z,99236.34
2018-11-02T07:44:39.307Z,99235.83
2018-11-02T07:47:07.440Z,99237.65
2018-11-02T07:49:35.696Z,99244.36
2018-11-02T07:52:03.902Z,99245.75
2018-11-02T07:54:32.056Z,99253.54
2018-11-02T07:57:00.332Z,99253.95
2018-11-02T07:59:28.625Z,99259.56
2018-11-02T08:01:56.876Z,99266.62
2018-11-02T08:04:25.074Z,99270.08
2018-11-02T08:06:53.331Z,99274.56
2018-11-02T08:09:21.468Z,99271.77
2018-11-02T08:11:49.785Z,99265.25
2018-11-02T08:14:17.960Z,99260.05
2018-11-02T08:19:20.655Z,99263.05
2018-11-02T08:21:48.786Z,99262.13
2018-11-02T08:24:17.116Z,99260.92
2018-11-02T08:26:45.235Z,99263.92
2018-11-02T08:29:13.501Z,99258.87
2018-11-02T08:31:42.203Z,99256.91
2018-11-02T08:34:10.376Z,99259.16
2018-11-02T08:36:38.692Z,99258.83
2018-11-02T08:39:08.562Z,99254.52
2018-11-02T08:41:36.807Z,99254.52
2018-11-02T08:44:05.072Z,99254.21
2018-11-02T08:46:33.392Z,99260.48
2018-11-02T08:49:01.480Z,99266.63
2018-11-02T08:51:29.787Z,99265.64
2018-11-02T08:53:57.958Z,99264.73
2018-11-02T08:56:26.219Z,99271.50
2018-11-02T08:58:54.409Z,99270.96
2018-11-02T09:01:22.580Z,99274.47
2018-11-02T09:03:50.738Z,99271.64
2018-11-02T09:06:18.973Z,99277.16
2018-11-02T09:08:47.250Z,99279.72
2018-11-02T09:11:15.448Z,99273.09
2018-11-02T09:13:43.830Z,99275.89
2018-11-02T09:16:12.007Z,99275.08
2018-11-02T09:18:40.152Z,99277.87
2018-11-02T09:21:08.383Z,99276.34
2018-11-02T09:23:36.685Z,99273.27
2018-11-02T09:26:05.471Z,99272.52
2018-11-02T09:28:33.669Z,99271.85
2018-11-02T09:31:01.840Z,99274.47
2018-11-02T09:33:30.032Z,99287.22
2018-11-02T09:35:58.272Z,99290.78
2018-11-02T09:38:26.505Z,99294.05
2018-11-02T09:40:54.687Z,99284.62
2018-11-02T09:43:22.904Z,99279.50
2018-11-02T09:45:51.093Z,99282.05
2018-11-02T09:48:19.444Z,99285.70
2018-11-02T09:50:47.624Z,99289.11
2018-11-02T09:53:15.820Z,99293.46
2018-11-02T09:55:44.107Z,99293.94
2018-11-02T09:58:12.255Z,99286.04
2018-11-02T10:00:40.416Z,99272.98
2018-11-02T10:03:08.706Z,99263.30
2018-11-02T10:05:36.938Z,99268.31
2018-11-02T10:08:05.239Z,99272.44
2018-11-02T10:10:33.537Z,99270.77
2018-11-02T10:13:01.833Z,99269.31
2018-11-02T10:15:30.265Z,99268.96
2018-11-02T10:17:58.726Z,99274.61
2018-11-02T10:20:27.021Z,99273.94
2018-11-02T10:22:55.212Z,99274.34
2018-11-02T10:25:23.536Z,99276.89
2018-11-02T10:27:51.956Z,99275.77
2018-11-02T10:30:20.273Z,99279.05
2018-11-02T10:32:51.389Z,99262.20
2018-11-02T10:35:19.642Z,99248.78
2018-11-02T10:37:48.222Z,99255.75
2018-11-02T10:40:18.177Z,99263.86
2018-11-02T10:43:20.866Z,99266.88
2018-11-02T10:45:53.793Z,99269.26
2018-11-02T10:48:22.289Z,99262.45
2018-11-02T10:50:50.624Z,99255.16
2018-11-02T10:53:18.786Z,99251.80
2018-11-02T10:55:47.903Z,99248.19
2018-11-02T10:58:16.371Z,99244.39
2018-11-02T11:00:50.107Z,99241.13
2018-11-02T11:03:18.292Z,99243.45
2018-11-02T11:05:46.472Z,99255.66
2018-11-02T11:08:14.652Z,99248.59
2018-11-02T11:10:42.832Z,99244.61
2018-11-02T11:13:11.328Z,99246.87
2018-11-02T11:15:39.208Z,99245.95
2018-11-02T11:18:07.367Z,99255.30
2018-11-02T11:20:35.519Z,99251.45
2018-11-02T11:23:03.780Z,99252.29
2018-11-02T11:25:31.966Z,99255.13
2018-11-02T11:28:00.148Z,99260.84
2018-11-02T11:30:28.353Z,99257.92
2018-11-02T11:32:56.812Z,99253.98
2018-11-02T11:35:25.361Z,99237.40
2018-11-02T11:37:53.671Z,99224.98
2018-11-02T11:40:22.338Z,99224.37
2018-11-02T11:42:50.864Z,99225.55
2018-11-02T11:45:20.408Z,99240.45
2018-11-02T11:47:48.589Z,99246.82
2018-11-02T11:50:21.266Z,99239.28
2018-11-02T11:52:51.374Z,99241.07
2018-11-02T11:55:20.583Z,99244.47
2018-11-02T11:57:48.804Z,99257.85
2018-11-02T12:00:18.909Z,99255.51
2018-11-02T12:02:48.016Z,99266.17
2018-11-02T12:05:17.436Z,99274.33
2018-11-02T12:07:45.715Z,99278.27
2018-11-02T12:10:28.896Z,99280.18
2018-11-02T12:12:56.957Z,99275.76
2018-11-02T12:15:25.176Z,99269.42
2018-11-02T12:17:53.521Z,99255.64
2018-11-02T12:20:27.367Z,99271.53
2018-11-02T12:22:57.071Z,99273.33
2018-11-02T12:25:25.275Z,99276.00
2018-11-02T12:27:53.717Z,99282.02
2018-11-02T12:30:21.895Z,99277.22
2018-11-02T12:32:50.060Z,99267.80
2018-11-02T12:35:19.008Z,99269.39
2018-11-02T12:37:47.399Z,99267.22
2018-11-02T12:40:16.811Z,99267.98
2018-11-02T12:42:45.902Z,99263.13
2018-11-02T12:45:15.219Z,99271.34
2018-11-02T12:47:44.025Z,99268.90
2018-11-02T12:50:14.802Z,99277.23
2018-11-02T12:52:43.803Z,99280.78
2018-11-02T12:55:12.671Z,99277.45
2018-11-02T12:57:41.226Z,99268.47
2018-11-02T13:00:12.130Z,99277.45
2018-11-02T13:02:40.547Z,99274.44
2018-11-02T13:05:09.237Z,99267.91
2018-11-02T13:07:38.264Z,99266.06
2018-11-02T13:10:07.139Z,99261.42
2018-11-02T13:12:35.393Z,99257.53
2018-11-02T13:15:03.644Z,99260.47
2018-11-02T13:17:31.923Z,99255.16
2018-11-02T13:20:00.047Z,99250.27
2018-11-02T13:22:28.635Z,99250.11
2018-11-02T13:24:57.043Z,99249.88
2018-11-02T13:27:25.323Z,99261.22
2018-11-02T13:29:54.607Z,99261.08
2018-11-02T13:32:22.951Z,99268.36
2018-11-02T13:34:51.106Z,99263.42
2018-11-02T13:37:19.248Z,99268.39
2018-11-02T13:39:47.688Z,99271.30
2018-11-02T13:42:16.083Z,99275.80
2018-11-02T13:44:44.584Z,99278.11
2018-11-02T13:47:12.827Z,99279.88
2018-11-02T13:49:40.989Z,99267.91
2018-11-02T13:52:10.183Z,99276.53
2018-11-02T13:54:38.310Z,99281.54
2018-11-02T13:57:06.752Z,99284.20
2018-11-02T13:59:35.050Z,99287.96
2018-11-02T14:02:03.256Z,99279.02
2018-11-02T14:04:31.677Z,99282.63
2018-11-02T14:07:00.082Z,99280.56
2018-11-02T14:09:28.539Z,99275.68
2018-11-02T14:11:56.958Z,99278.58
2018-11-02T14:14:25.484Z,99276.33
2018-11-02T14:16:53.813Z,99282.33
2018-11-02T14:19:22.312Z,99294.66
2018-11-02T14:21:50.842Z,99292.92
2018-11-02T14:24:19.004Z,99297.86
2018-11-02T14:26:47.268Z,99305.17
2018-11-02T14:29:15.445Z,99303.61
2018-11-02T14:31:43.548Z,99300.87
2018-11-02T14:34:11.719Z,99297.98
2018-11-02T14:36:39.913Z,99293.93
2018-11-02T14:39:10.020Z,99297.77
2018-11-02T14:41:38.404Z,99296.11
2018-11-02T14:44:07.016Z,99307.51
2018-11-02T14:46:35.245Z,99310.48
2018-11-02T14:49:03.448Z,99303.64
2018-11-02T14:51:31.861Z,99314.09
2018-11-02T14:54:00.401Z,99312.41
2018-11-02T14:56:28.740Z,99318.77
2018-11-02T14:58:57.253Z,99331.14
2018-11-02T15:01:25.833Z,99331.95
2018-11-02T15:03:54.187Z,99333.89
2018-11-02T15:06:22.501Z,99336.53
2018-11-02T15:08:50.904Z,99330.17
2018-11-02T15:11:19.300Z,99331.63
2018-11-02T15:13:47.704Z,99337.02
2018-11-02T15:16:16.085Z,99346.25
2018-11-02T15:18:44.468Z,99350.55
2018-11-02T15:21:12.744Z,99360.97
2018-11-02T15:23:40.987Z,99355.70
2018-11-02T15:26:09.439Z,99372.62
2018-11-02T15:28:37.802Z,99375.37
2018-11-02T15:31:06.736Z,99374.27
2018-11-02T15:33:35.029Z,99377.63
2018-11-02T15:36:03.280Z,99375.47
2018-11-02T15:38:31.605Z,99368.41
2018-11-02T15:41:00.040Z,99370.31
2018-11-02T15:43:29.230Z,99381.58
2018-11-02T15:45:57.529Z,99384.93
2018-11-02T15:48:25.707Z,99381.88
2018-11-02T15:50:53.896Z,99393.98
2018-11-02T15:53:22.225Z,99396.60
2018-11-02T15:55:50.424Z,99401.41
2018-11-02T15:58:18.720Z,99406.08
2018-11-02T16:00:47.076Z,99401.02
2018-11-02T16:03:15.233Z,99405.80
2018-11-02T16:05:43.597Z,99410.33
2018-11-02T16:08:11.786Z,99421.11
2018-11-02T16:10:40.188Z,99417.35
2018-11-02T16:13:08.581Z,99422.98
2018-11-02T16:15:37.018Z,99418.05
2018-11-02T16:18:05.577Z,99414.25
2018-11-02T16:20:33.891Z,99420.71
2018-11-02T16:23:02.028Z,99419.17
2018-11-02T16:25:30.390Z,99423.40
2018-11-02T16:27:58.654Z,99422.03
2018-11-02T16:30:26.930Z,99419.95
2018-11-02T16:32:55.157Z,99426.30
2018-11-02T16:35:23.360Z,99436.75
2018-11-02T16:37:51.595Z,99444.09
2018-11-02T16:40:20.004Z,99445.70
2018-11-02T16:42:48.276Z,99446.55
2018-11-02T16:45:16.446Z,99451.23
2018-11-02T16:47:44.960Z,99453.91
2018-11-02T16:50:14.659Z,99456.12
2018-11-02T16:52:43.327Z,99463.67
2018-11-02T16:55:11.810Z,99461.39
2018-11-02T16:57:40.442Z,99471.19
2018-11-02T17:00:14.275Z,99479.08
2018-11-02T17:02:42.619Z,99480.24
2018-11-02T17:05:10.878Z,99490.66
2018-11-02T17:07:39.600Z,99498.05
2018-11-02T17:10:08.713Z,99497.20
2018-11-02T17:12:36.887Z,99500.36
2018-11-02T17:15:05.121Z,99509.98
2018-11-02T17:17:33.453Z,99525.14
2018-11-02T17:20:01.746Z,99527.61
2018-11-02T17:22:30.060Z,99529.92
2018-11-02T17:24:58.202Z,99534.91
2018-11-02T17:27:26.375Z,99538.81
2018-11-02T17:29:54.897Z,99547.83
2018-11-02T17:32:30.060Z,99562.33
2018-11-02T17:34:58.409Z,99562.92
2018-11-02T17:37:26.681Z,99568.92
2018-11-02T17:39:55.070Z,99565.32
2018-11-02T17:42:23.509Z,99566.25
2018-11-02T17:44:51.968Z,99560.41
2018-11-02T17:47:20.516Z,99557.95
2018-11-02T17:49:55.758Z,99553.75
2018-11-02T17:52:24.561Z,99557.32
2018-11-02T17:54:52.733Z,99556.30
2018-11-02T17:57:20.988Z,99558.01
2018-11-02T17:59:49.264Z,99554.78
2018-11-02T18:02:17.541Z,99560.24
2018-11-02T18:04:46.210Z,99566.37
2018-11-02T18:07:14.596Z,99561.50
2018-11-02T18:09:42.975Z,99561.14
2018-11-02T18:12:11.423Z,99568.64
2018-11-02T18:14:39.622Z,99565.08
2018-11-02T18:17:07.752Z,99569.89
2018-11-02T18:19:35.916Z,99572.62
2018-11-02T18:22:04.279Z,99575.78
2018-11-02T18:24:32.566Z,99585.34
2018-11-02T18:27:01.010Z,99597.59
2018-11-02T18:29:29.192Z,99599.84
2018-11-02T18:31:57.562Z,99597.19
2018-11-02T18:34:25.866Z,99599.25
2018-11-02T18:36:54.116Z,99599.25
2018-11-02T18:39:22.532Z,99594.67
2018-11-02T18:41:50.667Z,99606.28
2018-11-02T18:44:18.981Z,99603.86
2018-11-02T18:46:47.153Z,99598.19
2018-11-02T18:49:15.296Z,99604.19
2018-11-02T18:51:43.438Z,99613.59
2018-11-02T18:54:11.676Z,99606.45
2018-11-02T18:56:40.018Z,99617.89
2018-11-02T18:59:09.657Z,99615.03
2018-11-02T19:01:38.009Z,99614.28
2018-11-02T19:04:06.393Z,99616.77
2018-11-02T19:06:35.637Z,99611.66
2018-11-02T19:09:05.397Z,99614.28
2018-11-02T19:11:33.579Z,99611.22
2018-11-02T19:14:01.712Z,99611.41
2018-11-02T19:16:30.035Z,99614.55
2018-11-02T19:18:58.471Z,99622.78
2018-11-02T19:21:26.644Z,99620.83
2018-11-02T19:23:54.904Z,99621.29
2018-11-02T19:26:23.097Z,99631.05
2018-11-02T19:28:51.311Z,99618.20
2018-11-02T19:31:19.429Z,99631.12
2018-11-02T19:33:47.551Z,99628.84
2018-11-02T19:36:15.739Z,99627.16
2018-11-02T19:38:43.906Z,99622.30
2018-11-02T19:41:12.175Z,99622.59
2018-11-02T19:43:40.505Z,99623.79
2018-11-02T19:46:08.650Z,99629.43
2018-11-02T19:48:36.908Z,99630.80
2018-11-02T19:51:05.692Z,99637.47
2018-11-02T19:53:33.987Z,99637.58
2018-11-02T19:56:02.187Z,99634.12
2018-11-02T19:58:30.388Z,99641.60
2018-11-02T20:00:58.700Z,99649.12
2018-11-02T20:03:26.869Z,99649.47
2018-11-02T20:05:55.047Z,99651.91
2018-11-02T20:08:23.183Z,99656.80
2018-11-02T20:10:51.317Z,99650.59
2018-11-02T20:13:19.787Z,99653.31
2018-11-02T20:15:48.107Z,99658.49
2018-11-02T20:18:16.249Z,99659.41
2018-11-02T20:20:44.468Z,99657.64
2018-11-02T20:23:12.765Z,99665.23
2018-11-02T20:25:41.002Z,99674.24
2018-11-02T20:28:09.128Z,99673.48
2018-11-02T20:30:38.364Z,99667.77
2018-11-02T20:33:06.541Z,99674.80
2018-11-02T20:35:34.692Z,99674.80
2018-11-02T20:38:02.889Z,99674.80
2018-11-02T20:40:31.268Z,99674.49
2018-11-02T20:42:59.455Z,99677.70
2018-11-02T20:45:27.804Z,99682.48
2018-11-02T20:47:56.328Z,99673.29
2018-11-02T20:50:24.530Z,99674.20
2018-11-02T20:52:53.202Z,99677.31
2018-11-02T20:55:21.446Z,99678.05
2018-11-02T20:57:49.619Z,99678.71
2018-11-02T21:00:19.360Z,99678.97
2018-11-02T21:02:47.814Z,99683.82
2018-11-02T21:05:17.112Z,99691.61
2018-11-02T21:07:45.856Z,99687.84
2018-11-02T21:10:15.191Z,99696.50
2018-11-02T21:12:43.440Z,99698.94
2018-11-02T21:15:19.560Z,99694.08
2018-11-02T21:17:48.158Z,99708.41
2018-11-02T21:20:17.563Z,99711.22
2018-11-02T21:22:45.971Z,99714.91
2018-11-02T21:25:14.977Z,99714.34
2018-11-02T21:27:43.996Z,99712.45
2018-11-02T21:30:15.387Z,99706.73
2018-11-02T21:32:44.659Z,99708.80
2018-11-02T21:35:13.066Z,99710.66
2018-11-02T21:37:41.490Z,99717.14
2018-11-02T21:40:13.540Z,99716.02
2018-11-02T21:42:42.672Z,99712.27
2018-11-02T21:45:11.440Z,99714.06
2018-11-02T21:47:40.857Z,99711.91
2018-11-02T21:50:09.479Z,99716.30
2018-11-02T21:52:37.804Z,99723.62
2018-11-02T21:55:06.390Z,99723.05
2018-11-02T21:57:34.870Z,99728.20
2018-11-02T22:02:37.352Z,99726.15
2018-11-02T22:05:06.334Z,99729.80
2018-11-02T22:07:34.711Z,99731.69
2018-11-02T22:10:02.940Z,99735.34
2018-11-02T22:12:31.366Z,99736.85
2018-11-02T22:14:59.590Z,99741.17
2018-11-02T22:17:27.779Z,99731.59
2018-11-02T22:19:55.911Z,99728.80
2018-11-02T22:22:24.324Z,99733.50
2018-11-02T22:24:52.623Z,99744.55
2018-11-02T22:27:20.810Z,99735.83
2018-11-02T22:29:48.891Z,99738.09
2018-11-02T22:32:17.014Z,99736.84
2018-11-02T22:34:45.223Z,99739.01
2018-11-02T22:37:13.364Z,99741.64
2018-11-02T22:39:42.192Z,99739.67
2018-11-02T22:42:10.433Z,99741.28
2018-11-02T22:44:38.575Z,99732.35
2018-11-02T22:47:07.057Z,99734.71
2018-11-02T22:49:35.172Z,99737.05
2018-11-02T22:52:03.359Z,99731.14
2018-11-02T22:54:31.521Z,99732.81
2018-11-02T22:57:02.726Z,99742.86
2018-11-02T22:59:30.907Z,99748.45
2018-11-02T23:01:59.015Z,99750.88
2018-11-02T23:04:27.145Z,99754.38
2018-11-02T23:06:55.343Z,99753.91
2018-11-02T23:09:23.779Z,99756.18
2018-11-02T23:11:52.001Z,99754.50
2018-11-02T23:14:20.119Z,99744.75
2018-11-02T23:16:48.635Z,99750.92
2018-11-02T23:19:16.926Z,99749.87
2018-11-02T23:21:45.155Z,99746.99
2018-11-02T23:24:13.646Z,99749.15
2018-11-02T23:26:41.776Z,99752.23
2018-11-02T23:29:10.668Z,99743.14
2018-11-02T23:31:38.967Z,99746.98
2018-11-02T23:34:07.123Z,99745.12
2018-11-02T23:36:35.961Z,99746.34
2018-11-02T23:39:05.539Z,99746.59
2018-11-02T23:41:33.832Z,99750.52
2018-11-02T23:44:02.003Z,99753.25
2018-11-02T23:46:30.240Z,99756.70
2018-11-02T23:48:58.386Z,99763.79
2018-11-02T23:51:26.559Z,99763.79
2018-11-02T23:53:54.749Z,99773.48
2018-11-02T23:56:22.938Z,99773.73
2018-11-02T23:58:51.196Z,99777.77
